sensor_id;sensor_type;location;lat;lon;timestamp;P1;durP1;ratioP1;P2;durP2;ratioP2
23578;SDS011;11967;50.852;4.400;2023-12-07T00:01:14;57.08;;;27.55;;
23578;SDS011;11967;50.852;4.400;2023-12-07T00:03:39;55.45;;;26.05;;
23578;SDS011;11967;50.852;4.400;2023-12-07T00:06:05;53.88;;;25.83;;
23578;SDS011;11967;50.852;4.400;2023-12-07T00:08:31;52.60;;;26.15;;
23578;SDS011;11967;50.852;4.400;2023-12-07T00:10:56;54.38;;;25.30;;
23578;SDS011;11967;50.852;4.400;2023-12-07T00:13:22;48.58;;;24.75;;
23578;SDS011;11967;50.852;4.400;2023-12-07T00:15:47;51.40;;;24.65;;
23578;SDS011;11967;50.852;4.400;2023-12-07T00:18:13;49.05;;;24.98;;
23578;SDS011;11967;50.852;4.400;2023-12-07T00:20:39;50.33;;;25.08;;
23578;SDS011;11967;50.852;4.400;2023-12-07T00:23:04;51.95;;;24.65;;
23578;SDS011;11967;50.852;4.400;2023-12-07T00:25:30;51.13;;;26.33;;
23578;SDS011;11967;50.852;4.400;2023-12-07T00:27:56;50.63;;;26.55;;
23578;SDS011;11967;50.852;4.400;2023-12-07T00:30:22;55.20;;;27.08;;
23578;SDS011;11967;50.852;4.400;2023-12-07T00:32:48;52.67;;;25.98;;
23578;SDS011;11967;50.852;4.400;2023-12-07T00:35:14;50.42;;;26.08;;
23578;SDS011;11967;50.852;4.400;2023-12-07T00:37:41;54.80;;;25.25;;
23578;SDS011;11967;50.852;4.400;2023-12-07T00:40:07;51.53;;;25.38;;
23578;SDS011;11967;50.852;4.400;2023-12-07T00:42:33;47.75;;;24.42;;
23578;SDS011;11967;50.852;4.400;2023-12-07T00:44:59;49.60;;;24.92;;
23578;SDS011;11967;50.852;4.400;2023-12-07T00:47:25;49.72;;;24.77;;
23578;SDS011;11967;50.852;4.400;2023-12-07T00:49:51;48.50;;;24.52;;
23578;SDS011;11967;50.852;4.400;2023-12-07T00:52:16;51.13;;;24.88;;
23578;SDS011;11967;50.852;4.400;2023-12-07T00:54:43;53.72;;;26.77;;
23578;SDS011;11967;50.852;4.400;2023-12-07T00:57:09;48.63;;;25.25;;
23578;SDS011;11967;50.852;4.400;2023-12-07T00:59:35;48.67;;;23.92;;
23578;SDS011;11967;50.852;4.400;2023-12-07T01:02:01;45.83;;;24.33;;
23578;SDS011;11967;50.852;4.400;2023-12-07T01:04:36;45.97;;;23.50;;
23578;SDS011;11967;50.852;4.400;2023-12-07T01:07:02;48.40;;;24.45;;
23578;SDS011;11967;50.852;4.400;2023-12-07T01:09:29;43.90;;;23.00;;
23578;SDS011;11967;50.852;4.400;2023-12-07T01:11:54;46.80;;;22.60;;
23578;SDS011;11967;50.852;4.400;2023-12-07T01:14:20;45.63;;;22.75;;
23578;SDS011;11967;50.852;4.400;2023-12-07T01:16:46;46.05;;;23.15;;
23578;SDS011;11967;50.852;4.400;2023-12-07T01:19:12;42.95;;;22.60;;
23578;SDS011;11967;50.852;4.400;2023-12-07T01:21:39;48.95;;;23.67;;
23578;SDS011;11967;50.852;4.400;2023-12-07T01:24:08;47.30;;;23.45;;
23578;SDS011;11967;50.852;4.400;2023-12-07T01:26:34;49.38;;;24.38;;
23578;SDS011;11967;50.852;4.400;2023-12-07T01:29:00;53.78;;;23.00;;
23578;SDS011;11967;50.852;4.400;2023-12-07T01:31:26;42.67;;;22.23;;
23578;SDS011;11967;50.852;4.400;2023-12-07T01:33:52;43.78;;;22.98;;
23578;SDS011;11967;50.852;4.400;2023-12-07T01:36:17;48.30;;;23.85;;
23578;SDS011;11967;50.852;4.400;2023-12-07T01:38:43;45.05;;;23.80;;
23578;SDS011;11967;50.852;4.400;2023-12-07T01:41:09;47.70;;;24.85;;
23578;SDS011;11967;50.852;4.400;2023-12-07T01:43:35;52.30;;;24.27;;
23578;SDS011;11967;50.852;4.400;2023-12-07T01:46:00;52.22;;;25.77;;
23578;SDS011;11967;50.852;4.400;2023-12-07T01:48:28;48.67;;;24.85;;
23578;SDS011;11967;50.852;4.400;2023-12-07T01:50:55;47.53;;;23.85;;
23578;SDS011;11967;50.852;4.400;2023-12-07T01:53:22;45.28;;;23.83;;
23578;SDS011;11967;50.852;4.400;2023-12-07T01:55:50;45.47;;;23.35;;
23578;SDS011;11967;50.852;4.400;2023-12-07T01:58:18;41.83;;;22.88;;
23578;SDS011;11967;50.852;4.400;2023-12-07T02:00:44;43.67;;;22.98;;
23578;SDS011;11967;50.852;4.400;2023-12-07T02:03:11;42.45;;;22.67;;
23578;SDS011;11967;50.852;4.400;2023-12-07T02:05:40;40.90;;;22.42;;
23578;SDS011;11967;50.852;4.400;2023-12-07T02:08:08;43.20;;;22.70;;
23578;SDS011;11967;50.852;4.400;2023-12-07T02:10:34;43.05;;;23.05;;
23578;SDS011;11967;50.852;4.400;2023-12-07T02:13:01;39.83;;;22.85;;
23578;SDS011;11967;50.852;4.400;2023-12-07T02:15:26;41.78;;;22.75;;
23578;SDS011;11967;50.852;4.400;2023-12-07T02:17:55;43.67;;;23.48;;
23578;SDS011;11967;50.852;4.400;2023-12-07T02:20:49;39.17;;;21.95;;
23578;SDS011;11967;50.852;4.400;2023-12-07T02:23:28;34.88;;;20.38;;
23578;SDS011;11967;50.852;4.400;2023-12-07T02:25:54;34.97;;;19.35;;
23578;SDS011;11967;50.852;4.400;2023-12-07T02:28:27;36.33;;;19.15;;
23578;SDS011;11967;50.852;4.400;2023-12-07T02:30:53;33.08;;;18.27;;
23578;SDS011;11967;50.852;4.400;2023-12-07T02:33:18;37.63;;;19.63;;
23578;SDS011;11967;50.852;4.400;2023-12-07T02:35:44;31.15;;;18.08;;
23578;SDS011;11967;50.852;4.400;2023-12-07T02:38:10;31.10;;;17.48;;
23578;SDS011;11967;50.852;4.400;2023-12-07T02:40:36;29.30;;;17.20;;
23578;SDS011;11967;50.852;4.400;2023-12-07T02:43:03;31.50;;;17.02;;
23578;SDS011;11967;50.852;4.400;2023-12-07T02:45:29;30.83;;;17.58;;
23578;SDS011;11967;50.852;4.400;2023-12-07T02:47:57;34.65;;;18.48;;
23578;SDS011;11967;50.852;4.400;2023-12-07T02:50:23;30.02;;;17.23;;
23578;SDS011;11967;50.852;4.400;2023-12-07T02:52:49;34.85;;;18.38;;
23578;SDS011;11967;50.852;4.400;2023-12-07T02:55:15;34.15;;;18.58;;
23578;SDS011;11967;50.852;4.400;2023-12-07T02:57:40;33.50;;;18.63;;
23578;SDS011;11967;50.852;4.400;2023-12-07T03:00:06;33.70;;;17.67;;
23578;SDS011;11967;50.852;4.400;2023-12-07T03:02:36;35.53;;;18.63;;
23578;SDS011;11967;50.852;4.400;2023-12-07T03:05:03;34.45;;;18.77;;
23578;SDS011;11967;50.852;4.400;2023-12-07T03:07:30;31.05;;;18.20;;
23578;SDS011;11967;50.852;4.400;2023-12-07T03:09:56;34.42;;;18.90;;
23578;SDS011;11967;50.852;4.400;2023-12-07T03:12:21;33.70;;;18.08;;
23578;SDS011;11967;50.852;4.400;2023-12-07T03:14:48;31.70;;;18.20;;
23578;SDS011;11967;50.852;4.400;2023-12-07T03:17:14;33.35;;;18.00;;
23578;SDS011;11967;50.852;4.400;2023-12-07T03:19:39;31.60;;;18.83;;
23578;SDS011;11967;50.852;4.400;2023-12-07T03:22:06;32.13;;;17.88;;
23578;SDS011;11967;50.852;4.400;2023-12-07T03:24:35;35.03;;;17.67;;
23578;SDS011;11967;50.852;4.400;2023-12-07T03:27:01;31.90;;;16.98;;
23578;SDS011;11967;50.852;4.400;2023-12-07T03:29:27;29.88;;;16.13;;
23578;SDS011;11967;50.852;4.400;2023-12-07T03:31:53;31.45;;;17.08;;
23578;SDS011;11967;50.852;4.400;2023-12-07T03:34:19;31.30;;;17.48;;
23578;SDS011;11967;50.852;4.400;2023-12-07T03:36:48;28.88;;;16.65;;
23578;SDS011;11967;50.852;4.400;2023-12-07T03:39:14;28.67;;;16.67;;
23578;SDS011;11967;50.852;4.400;2023-12-07T03:41:40;38.72;;;18.33;;
23578;SDS011;11967;50.852;4.400;2023-12-07T03:44:06;35.28;;;17.58;;
23578;SDS011;11967;50.852;4.400;2023-12-07T03:46:32;32.90;;;18.02;;
23578;SDS011;11967;50.852;4.400;2023-12-07T03:48:58;35.00;;;17.85;;
23578;SDS011;11967;50.852;4.400;2023-12-07T03:51:25;30.30;;;17.83;;
23578;SDS011;11967;50.852;4.400;2023-12-07T03:53:51;32.10;;;17.63;;
23578;SDS011;11967;50.852;4.400;2023-12-07T03:56:30;32.35;;;18.33;;
23578;SDS011;11967;50.852;4.400;2023-12-07T03:58:56;31.67;;;18.15;;
23578;SDS011;11967;50.852;4.400;2023-12-07T04:01:25;32.42;;;18.38;;
23578;SDS011;11967;50.852;4.400;2023-12-07T04:03:52;34.33;;;17.75;;
23578;SDS011;11967;50.852;4.400;2023-12-07T04:06:19;32.97;;;18.10;;
23578;SDS011;11967;50.852;4.400;2023-12-07T04:08:45;33.67;;;18.17;;
23578;SDS011;11967;50.852;4.400;2023-12-07T04:11:12;29.17;;;17.98;;
23578;SDS011;11967;50.852;4.400;2023-12-07T04:13:38;33.85;;;18.55;;
23578;SDS011;11967;50.852;4.400;2023-12-07T04:16:04;29.05;;;17.42;;
23578;SDS011;11967;50.852;4.400;2023-12-07T04:18:30;31.80;;;17.25;;
23578;SDS011;11967;50.852;4.400;2023-12-07T04:20:56;30.45;;;17.02;;
23578;SDS011;11967;50.852;4.400;2023-12-07T04:23:22;32.50;;;17.60;;
23578;SDS011;11967;50.852;4.400;2023-12-07T04:25:48;30.30;;;16.80;;
23578;SDS011;11967;50.852;4.400;2023-12-07T04:28:14;28.05;;;16.45;;
23578;SDS011;11967;50.852;4.400;2023-12-07T04:30:40;27.13;;;16.40;;
23578;SDS011;11967;50.852;4.400;2023-12-07T04:33:07;26.38;;;15.50;;
23578;SDS011;11967;50.852;4.400;2023-12-07T04:35:32;24.52;;;14.57;;
23578;SDS011;11967;50.852;4.400;2023-12-07T04:37:59;23.48;;;14.77;;
23578;SDS011;11967;50.852;4.400;2023-12-07T04:40:25;25.85;;;15.20;;
23578;SDS011;11967;50.852;4.400;2023-12-07T04:42:51;22.27;;;14.23;;
23578;SDS011;11967;50.852;4.400;2023-12-07T04:45:16;26.35;;;14.75;;
23578;SDS011;11967;50.852;4.400;2023-12-07T04:47:42;24.17;;;14.65;;
23578;SDS011;11967;50.852;4.400;2023-12-07T04:50:08;29.98;;;16.85;;
23578;SDS011;11967;50.852;4.400;2023-12-07T04:52:35;25.40;;;15.90;;
23578;SDS011;11967;50.852;4.400;2023-12-07T04:55:01;29.98;;;16.23;;
23578;SDS011;11967;50.852;4.400;2023-12-07T04:57:26;28.60;;;16.30;;
23578;SDS011;11967;50.852;4.400;2023-12-07T04:59:52;24.65;;;15.40;;
23578;SDS011;11967;50.852;4.400;2023-12-07T05:02:18;25.50;;;15.65;;
23578;SDS011;11967;50.852;4.400;2023-12-07T05:04:43;26.58;;;16.70;;
23578;SDS011;11967;50.852;4.400;2023-12-07T05:07:10;24.33;;;15.15;;
23578;SDS011;11967;50.852;4.400;2023-12-07T05:09:37;25.38;;;15.77;;
23578;SDS011;11967;50.852;4.400;2023-12-07T05:12:04;25.55;;;15.20;;
23578;SDS011;11967;50.852;4.400;2023-12-07T05:14:33;25.50;;;15.32;;
23578;SDS011;11967;50.852;4.400;2023-12-07T05:16:59;29.70;;;16.60;;
23578;SDS011;11967;50.852;4.400;2023-12-07T05:19:25;21.58;;;14.88;;
23578;SDS011;11967;50.852;4.400;2023-12-07T05:21:51;25.88;;;15.57;;
23578;SDS011;11967;50.852;4.400;2023-12-07T05:24:17;25.23;;;14.38;;
23578;SDS011;11967;50.852;4.400;2023-12-07T05:26:43;23.90;;;14.20;;
23578;SDS011;11967;50.852;4.400;2023-12-07T05:29:13;20.17;;;12.95;;
23578;SDS011;11967;50.852;4.400;2023-12-07T05:31:39;21.80;;;13.48;;
23578;SDS011;11967;50.852;4.400;2023-12-07T05:34:06;21.10;;;12.95;;
23578;SDS011;11967;50.852;4.400;2023-12-07T05:36:34;27.25;;;15.20;;
23578;SDS011;11967;50.852;4.400;2023-12-07T05:39:00;23.75;;;13.63;;
23578;SDS011;11967;50.852;4.400;2023-12-07T05:41:26;25.20;;;14.85;;
23578;SDS011;11967;50.852;4.400;2023-12-07T05:43:52;20.73;;;13.40;;
23578;SDS011;11967;50.852;4.400;2023-12-07T05:46:18;22.17;;;14.02;;
23578;SDS011;11967;50.852;4.400;2023-12-07T05:48:44;28.42;;;13.98;;
23578;SDS011;11967;50.852;4.400;2023-12-07T05:51:14;24.60;;;13.90;;
23578;SDS011;11967;50.852;4.400;2023-12-07T05:53:41;21.63;;;13.40;;
23578;SDS011;11967;50.852;4.400;2023-12-07T05:56:07;24.75;;;13.95;;
23578;SDS011;11967;50.852;4.400;2023-12-07T05:58:33;21.45;;;14.15;;
23578;SDS011;11967;50.852;4.400;2023-12-07T06:00:59;22.05;;;13.65;;
23578;SDS011;11967;50.852;4.400;2023-12-07T06:03:27;24.15;;;13.82;;
23578;SDS011;11967;50.852;4.400;2023-12-07T06:05:53;25.20;;;13.95;;
23578;SDS011;11967;50.852;4.400;2023-12-07T06:08:18;23.33;;;13.27;;
23578;SDS011;11967;50.852;4.400;2023-12-07T06:10:44;23.70;;;13.30;;
23578;SDS011;11967;50.852;4.400;2023-12-07T06:13:10;23.95;;;14.35;;
23578;SDS011;11967;50.852;4.400;2023-12-07T06:15:36;23.17;;;13.88;;
23578;SDS011;11967;50.852;4.400;2023-12-07T06:18:02;24.92;;;14.73;;
23578;SDS011;11967;50.852;4.400;2023-12-07T06:20:28;27.33;;;13.55;;
23578;SDS011;11967;50.852;4.400;2023-12-07T06:22:54;23.23;;;14.73;;
23578;SDS011;11967;50.852;4.400;2023-12-07T06:25:19;25.98;;;14.60;;
23578;SDS011;11967;50.852;4.400;2023-12-07T06:27:45;32.25;;;13.75;;
23578;SDS011;11967;50.852;4.400;2023-12-07T06:30:11;21.73;;;13.02;;
23578;SDS011;11967;50.852;4.400;2023-12-07T06:32:37;24.73;;;13.80;;
23578;SDS011;11967;50.852;4.400;2023-12-07T06:35:03;22.95;;;13.88;;
23578;SDS011;11967;50.852;4.400;2023-12-07T06:37:29;24.42;;;13.70;;
23578;SDS011;11967;50.852;4.400;2023-12-07T06:39:55;24.13;;;13.88;;
23578;SDS011;11967;50.852;4.400;2023-12-07T06:42:20;23.02;;;13.80;;
23578;SDS011;11967;50.852;4.400;2023-12-07T06:44:47;22.20;;;13.02;;
23578;SDS011;11967;50.852;4.400;2023-12-07T06:47:14;22.55;;;13.75;;
23578;SDS011;11967;50.852;4.400;2023-12-07T06:49:40;22.27;;;13.20;;
23578;SDS011;11967;50.852;4.400;2023-12-07T06:52:06;23.42;;;13.05;;
23578;SDS011;11967;50.852;4.400;2023-12-07T06:54:32;24.80;;;12.95;;
23578;SDS011;11967;50.852;4.400;2023-12-07T06:56:58;24.73;;;13.38;;
23578;SDS011;11967;50.852;4.400;2023-12-07T06:59:24;21.88;;;12.90;;
23578;SDS011;11967;50.852;4.400;2023-12-07T07:01:50;22.15;;;12.50;;
23578;SDS011;11967;50.852;4.400;2023-12-07T07:04:16;25.50;;;12.95;;
23578;SDS011;11967;50.852;4.400;2023-12-07T07:06:41;21.73;;;12.60;;
23578;SDS011;11967;50.852;4.400;2023-12-07T07:09:07;25.25;;;13.40;;
23578;SDS011;11967;50.852;4.400;2023-12-07T07:11:33;23.85;;;13.23;;
23578;SDS011;11967;50.852;4.400;2023-12-07T07:13:59;23.92;;;12.55;;
23578;SDS011;11967;50.852;4.400;2023-12-07T07:16:25;21.35;;;12.25;;
23578;SDS011;11967;50.852;4.400;2023-12-07T07:18:51;24.10;;;13.30;;
23578;SDS011;11967;50.852;4.400;2023-12-07T07:21:16;21.65;;;13.07;;
23578;SDS011;11967;50.852;4.400;2023-12-07T07:23:42;28.38;;;13.10;;
23578;SDS011;11967;50.852;4.400;2023-12-07T07:26:08;23.67;;;12.15;;
23578;SDS011;11967;50.852;4.400;2023-12-07T07:28:37;23.35;;;13.05;;
23578;SDS011;11967;50.852;4.400;2023-12-07T07:31:03;18.73;;;12.43;;
23578;SDS011;11967;50.852;4.400;2023-12-07T07:33:29;25.10;;;14.02;;
23578;SDS011;11967;50.852;4.400;2023-12-07T07:35:54;26.45;;;13.00;;
23578;SDS011;11967;50.852;4.400;2023-12-07T07:38:20;25.73;;;13.50;;
23578;SDS011;11967;50.852;4.400;2023-12-07T07:40:46;22.77;;;12.98;;
23578;SDS011;11967;50.852;4.400;2023-12-07T07:43:13;25.10;;;14.18;;
23578;SDS011;11967;50.852;4.400;2023-12-07T07:45:39;25.27;;;13.30;;
23578;SDS011;11967;50.852;4.400;2023-12-07T07:48:08;26.73;;;13.68;;
23578;SDS011;11967;50.852;4.400;2023-12-07T07:50:33;22.15;;;12.90;;
23578;SDS011;11967;50.852;4.400;2023-12-07T07:53:02;25.17;;;13.43;;
23578;SDS011;11967;50.852;4.400;2023-12-07T07:55:29;29.77;;;15.75;;
23578;SDS011;11967;50.852;4.400;2023-12-07T07:57:57;23.85;;;11.70;;
23578;SDS011;11967;50.852;4.400;2023-12-07T08:00:23;24.40;;;13.35;;
23578;SDS011;11967;50.852;4.400;2023-12-07T08:02:51;25.52;;;14.10;;
23578;SDS011;11967;50.852;4.400;2023-12-07T08:05:16;22.85;;;14.23;;
23578;SDS011;11967;50.852;4.400;2023-12-07T08:07:42;22.33;;;13.10;;
23578;SDS011;11967;50.852;4.400;2023-12-07T08:10:08;26.45;;;13.20;;
23578;SDS011;11967;50.852;4.400;2023-12-07T08:12:34;23.02;;;12.80;;
23578;SDS011;11967;50.852;4.400;2023-12-07T08:15:00;21.30;;;12.77;;
23578;SDS011;11967;50.852;4.400;2023-12-07T08:17:26;25.08;;;13.07;;
23578;SDS011;11967;50.852;4.400;2023-12-07T08:19:52;25.45;;;13.25;;
23578;SDS011;11967;50.852;4.400;2023-12-07T08:22:18;23.70;;;13.73;;
23578;SDS011;11967;50.852;4.400;2023-12-07T08:24:43;24.85;;;13.20;;
23578;SDS011;11967;50.852;4.400;2023-12-07T08:27:09;26.85;;;14.20;;
23578;SDS011;11967;50.852;4.400;2023-12-07T08:29:35;25.92;;;13.65;;
23578;SDS011;11967;50.852;4.400;2023-12-07T08:32:01;24.00;;;13.57;;
23578;SDS011;11967;50.852;4.400;2023-12-07T08:34:27;28.25;;;13.48;;
23578;SDS011;11967;50.852;4.400;2023-12-07T08:36:53;26.05;;;13.40;;
23578;SDS011;11967;50.852;4.400;2023-12-07T08:39:19;23.58;;;12.60;;
23578;SDS011;11967;50.852;4.400;2023-12-07T08:41:44;24.83;;;13.60;;
23578;SDS011;11967;50.852;4.400;2023-12-07T08:44:10;26.35;;;12.40;;
23578;SDS011;11967;50.852;4.400;2023-12-07T08:46:36;24.63;;;13.35;;
23578;SDS011;11967;50.852;4.400;2023-12-07T08:49:02;22.90;;;11.77;;
23578;SDS011;11967;50.852;4.400;2023-12-07T08:51:28;26.00;;;12.52;;
23578;SDS011;11967;50.852;4.400;2023-12-07T08:53:55;22.35;;;12.38;;
23578;SDS011;11967;50.852;4.400;2023-12-07T08:56:21;20.80;;;11.85;;
23578;SDS011;11967;50.852;4.400;2023-12-07T08:58:47;19.27;;;11.88;;
23578;SDS011;11967;50.852;4.400;2023-12-07T09:01:12;22.33;;;12.02;;
23578;SDS011;11967;50.852;4.400;2023-12-07T09:03:38;20.15;;;11.80;;
23578;SDS011;11967;50.852;4.400;2023-12-07T09:06:04;17.67;;;11.13;;
23578;SDS011;11967;50.852;4.400;2023-12-07T09:08:31;26.25;;;12.25;;
23578;SDS011;11967;50.852;4.400;2023-12-07T09:10:56;22.60;;;11.73;;
23578;SDS011;11967;50.852;4.400;2023-12-07T09:13:22;20.77;;;11.15;;
23578;SDS011;11967;50.852;4.400;2023-12-07T09:15:48;23.02;;;12.48;;
23578;SDS011;11967;50.852;4.400;2023-12-07T09:18:13;19.13;;;11.70;;
23578;SDS011;11967;50.852;4.400;2023-12-07T09:20:39;22.38;;;11.48;;
23578;SDS011;11967;50.852;4.400;2023-12-07T09:23:11;22.73;;;11.18;;
23578;SDS011;11967;50.852;4.400;2023-12-07T09:25:38;24.42;;;11.85;;
23578;SDS011;11967;50.852;4.400;2023-12-07T09:28:04;17.98;;;11.32;;
23578;SDS011;11967;50.852;4.400;2023-12-07T09:30:29;20.92;;;12.20;;
23578;SDS011;11967;50.852;4.400;2023-12-07T09:32:58;20.67;;;11.95;;
23578;SDS011;11967;50.852;4.400;2023-12-07T09:35:24;19.58;;;11.63;;
23578;SDS011;11967;50.852;4.400;2023-12-07T09:37:49;20.00;;;11.50;;
23578;SDS011;11967;50.852;4.400;2023-12-07T09:40:16;17.92;;;10.82;;
23578;SDS011;11967;50.852;4.400;2023-12-07T09:42:42;22.08;;;11.60;;
23578;SDS011;11967;50.852;4.400;2023-12-07T09:45:08;24.70;;;11.25;;
23578;SDS011;11967;50.852;4.400;2023-12-07T09:47:34;25.30;;;11.50;;
23578;SDS011;11967;50.852;4.400;2023-12-07T09:50:02;22.95;;;11.68;;
23578;SDS011;11967;50.852;4.400;2023-12-07T09:52:29;19.40;;;9.88;;
23578;SDS011;11967;50.852;4.400;2023-12-07T09:54:55;16.15;;;9.45;;
23578;SDS011;11967;50.852;4.400;2023-12-07T09:57:22;22.17;;;10.13;;
23578;SDS011;11967;50.852;4.400;2023-12-07T09:59:48;17.45;;;9.68;;
23578;SDS011;11967;50.852;4.400;2023-12-07T10:02:13;19.00;;;9.25;;
23578;SDS011;11967;50.852;4.400;2023-12-07T10:04:39;19.58;;;9.55;;
23578;SDS011;11967;50.852;4.400;2023-12-07T10:07:05;19.77;;;8.77;;
23578;SDS011;11967;50.852;4.400;2023-12-07T10:09:38;15.63;;;8.90;;
23578;SDS011;11967;50.852;4.400;2023-12-07T10:12:07;18.48;;;8.75;;
23578;SDS011;11967;50.852;4.400;2023-12-07T10:14:33;18.73;;;8.93;;
23578;SDS011;11967;50.852;4.400;2023-12-07T10:16:59;18.25;;;8.75;;
23578;SDS011;11967;50.852;4.400;2023-12-07T10:19:25;18.67;;;8.93;;
23578;SDS011;11967;50.852;4.400;2023-12-07T10:21:52;17.33;;;8.77;;
23578;SDS011;11967;50.852;4.400;2023-12-07T10:24:19;16.17;;;8.63;;
23578;SDS011;11967;50.852;4.400;2023-12-07T10:26:50;16.85;;;8.93;;
23578;SDS011;11967;50.852;4.400;2023-12-07T10:29:19;22.15;;;9.80;;
23578;SDS011;11967;50.852;4.400;2023-12-07T10:31:45;13.45;;;7.80;;
23578;SDS011;11967;50.852;4.400;2023-12-07T10:34:12;16.90;;;8.55;;
23578;SDS011;11967;50.852;4.400;2023-12-07T10:36:38;18.30;;;8.27;;
23578;SDS011;11967;50.852;4.400;2023-12-07T10:39:03;16.08;;;8.25;;
23578;SDS011;11967;50.852;4.400;2023-12-07T10:41:33;13.68;;;8.02;;
23578;SDS011;11967;50.852;4.400;2023-12-07T10:44:00;12.98;;;7.88;;
23578;SDS011;11967;50.852;4.400;2023-12-07T10:46:28;16.00;;;8.18;;
23578;SDS011;11967;50.852;4.400;2023-12-07T10:49:01;14.65;;;8.63;;
23578;SDS011;11967;50.852;4.400;2023-12-07T10:54:02;14.55;;;8.13;;
23578;SDS011;11967;50.852;4.400;2023-12-07T10:56:33;16.63;;;8.23;;
23578;SDS011;11967;50.852;4.400;2023-12-07T10:59:10;15.10;;;8.15;;
23578;SDS011;11967;50.852;4.400;2023-12-07T11:01:41;16.88;;;8.38;;
23578;SDS011;11967;50.852;4.400;2023-12-07T11:04:11;13.20;;;8.07;;
23578;SDS011;11967;50.852;4.400;2023-12-07T11:06:41;13.60;;;7.78;;
23578;SDS011;11967;50.852;4.400;2023-12-07T11:09:22;16.35;;;7.35;;
23578;SDS011;11967;50.852;4.400;2023-12-07T11:11:57;13.27;;;7.80;;
23578;SDS011;11967;50.852;4.400;2023-12-07T11:14:28;16.67;;;8.77;;
23578;SDS011;11967;50.852;4.400;2023-12-07T11:16:54;15.55;;;8.00;;
23578;SDS011;11967;50.852;4.400;2023-12-07T11:22:01;13.48;;;8.45;;
23578;SDS011;11967;50.852;4.400;2023-12-07T11:24:27;13.93;;;7.85;;
23578;SDS011;11967;50.852;4.400;2023-12-07T11:26:53;13.77;;;8.20;;
23578;SDS011;11967;50.852;4.400;2023-12-07T11:29:20;15.52;;;9.35;;
23578;SDS011;11967;50.852;4.400;2023-12-07T11:31:46;15.10;;;7.88;;
23578;SDS011;11967;50.852;4.400;2023-12-07T11:34:13;12.23;;;7.47;;
23578;SDS011;11967;50.852;4.400;2023-12-07T11:36:39;12.88;;;7.30;;
23578;SDS011;11967;50.852;4.400;2023-12-07T11:41:40;13.90;;;7.22;;
23578;SDS011;11967;50.852;4.400;2023-12-07T11:44:10;14.50;;;7.05;;
23578;SDS011;11967;50.852;4.400;2023-12-07T11:46:37;12.43;;;6.75;;
23578;SDS011;11967;50.852;4.400;2023-12-07T11:49:03;12.95;;;7.10;;
23578;SDS011;11967;50.852;4.400;2023-12-07T11:51:30;15.10;;;7.55;;
23578;SDS011;11967;50.852;4.400;2023-12-07T11:53:56;12.52;;;7.30;;
23578;SDS011;11967;50.852;4.400;2023-12-07T11:56:21;16.10;;;6.93;;
23578;SDS011;11967;50.852;4.400;2023-12-07T11:58:47;12.30;;;6.72;;
23578;SDS011;11967;50.852;4.400;2023-12-07T12:01:14;11.65;;;6.60;;
23578;SDS011;11967;50.852;4.400;2023-12-07T12:03:41;11.93;;;6.63;;
23578;SDS011;11967;50.852;4.400;2023-12-07T12:06:08;14.73;;;7.20;;
23578;SDS011;11967;50.852;4.400;2023-12-07T12:08:35;12.25;;;6.53;;
23578;SDS011;11967;50.852;4.400;2023-12-07T12:11:01;20.05;;;7.70;;
23578;SDS011;11967;50.852;4.400;2023-12-07T12:13:28;9.90;;;6.47;;
23578;SDS011;11967;50.852;4.400;2023-12-07T12:15:54;14.65;;;7.00;;
23578;SDS011;11967;50.852;4.400;2023-12-07T12:18:23;13.90;;;6.53;;
23578;SDS011;11967;50.852;4.400;2023-12-07T12:20:51;11.98;;;6.55;;
23578;SDS011;11967;50.852;4.400;2023-12-07T12:23:17;15.55;;;7.10;;
23578;SDS011;11967;50.852;4.400;2023-12-07T12:25:43;11.02;;;6.80;;
23578;SDS011;11967;50.852;4.400;2023-12-07T12:28:10;13.00;;;6.70;;
23578;SDS011;11967;50.852;4.400;2023-12-07T12:30:36;12.52;;;7.15;;
23578;SDS011;11967;50.852;4.400;2023-12-07T12:33:03;12.70;;;7.03;;
23578;SDS011;11967;50.852;4.400;2023-12-07T12:35:29;12.80;;;6.65;;
23578;SDS011;11967;50.852;4.400;2023-12-07T12:37:54;11.68;;;6.90;;
23578;SDS011;11967;50.852;4.400;2023-12-07T12:40:21;12.18;;;6.47;;
23578;SDS011;11967;50.852;4.400;2023-12-07T12:42:48;12.82;;;6.22;;
23578;SDS011;11967;50.852;4.400;2023-12-07T12:45:16;14.40;;;6.50;;
23578;SDS011;11967;50.852;4.400;2023-12-07T12:47:43;11.20;;;5.85;;
23578;SDS011;11967;50.852;4.400;2023-12-07T12:50:31;12.07;;;5.63;;
23578;SDS011;11967;50.852;4.400;2023-12-07T12:52:59;13.05;;;6.05;;
23578;SDS011;11967;50.852;4.400;2023-12-07T12:55:30;13.73;;;6.00;;
23578;SDS011;11967;50.852;4.400;2023-12-07T12:58:00;13.32;;;6.05;;
23578;SDS011;11967;50.852;4.400;2023-12-07T13:00:28;14.55;;;6.03;;
23578;SDS011;11967;50.852;4.400;2023-12-07T13:02:54;15.30;;;6.78;;
23578;SDS011;11967;50.852;4.400;2023-12-07T13:05:20;11.23;;;5.43;;
23578;SDS011;11967;50.852;4.400;2023-12-07T13:07:46;10.00;;;5.93;;
23578;SDS011;11967;50.852;4.400;2023-12-07T13:10:15;9.77;;;5.90;;
23578;SDS011;11967;50.852;4.400;2023-12-07T13:12:41;15.95;;;6.00;;
23578;SDS011;11967;50.852;4.400;2023-12-07T13:15:09;9.00;;;5.53;;
23578;SDS011;11967;50.852;4.400;2023-12-07T13:17:34;14.43;;;5.95;;
23578;SDS011;11967;50.852;4.400;2023-12-07T13:20:00;10.60;;;5.97;;
23578;SDS011;11967;50.852;4.400;2023-12-07T13:22:26;10.38;;;5.90;;
23578;SDS011;11967;50.852;4.400;2023-12-07T13:24:51;12.10;;;5.65;;
23578;SDS011;11967;50.852;4.400;2023-12-07T13:27:17;10.73;;;5.70;;
23578;SDS011;11967;50.852;4.400;2023-12-07T13:29:43;10.65;;;6.32;;
23578;SDS011;11967;50.852;4.400;2023-12-07T13:32:09;9.35;;;5.40;;
23578;SDS011;11967;50.852;4.400;2023-12-07T13:34:36;12.65;;;6.20;;
23578;SDS011;11967;50.852;4.400;2023-12-07T13:37:01;15.60;;;6.07;;
23578;SDS011;11967;50.852;4.400;2023-12-07T13:39:27;10.02;;;5.80;;
23578;SDS011;11967;50.852;4.400;2023-12-07T13:41:54;8.63;;;5.70;;
23578;SDS011;11967;50.852;4.400;2023-12-07T13:44:20;10.80;;;5.75;;
23578;SDS011;11967;50.852;4.400;2023-12-07T13:46:46;8.32;;;5.15;;
23578;SDS011;11967;50.852;4.400;2023-12-07T13:49:11;11.77;;;5.85;;
23578;SDS011;11967;50.852;4.400;2023-12-07T13:51:39;11.00;;;5.82;;
23578;SDS011;11967;50.852;4.400;2023-12-07T13:54:05;12.55;;;5.65;;
23578;SDS011;11967;50.852;4.400;2023-12-07T13:56:32;9.30;;;5.32;;
23578;SDS011;11967;50.852;4.400;2023-12-07T13:58:59;9.40;;;6.07;;
23578;SDS011;11967;50.852;4.400;2023-12-07T14:01:25;11.13;;;5.85;;
23578;SDS011;11967;50.852;4.400;2023-12-07T14:03:51;11.48;;;5.88;;
23578;SDS011;11967;50.852;4.400;2023-12-07T14:06:24;12.77;;;5.85;;
23578;SDS011;11967;50.852;4.400;2023-12-07T14:08:50;10.70;;;5.73;;
23578;SDS011;11967;50.852;4.400;2023-12-07T14:11:16;12.05;;;6.28;;
23578;SDS011;11967;50.852;4.400;2023-12-07T14:13:43;12.55;;;6.03;;
23578;SDS011;11967;50.852;4.400;2023-12-07T14:16:11;12.82;;;5.93;;
23578;SDS011;11967;50.852;4.400;2023-12-07T14:18:37;9.43;;;5.95;;
23578;SDS011;11967;50.852;4.400;2023-12-07T14:21:03;10.02;;;5.80;;
23578;SDS011;11967;50.852;4.400;2023-12-07T14:23:29;12.05;;;5.75;;
23578;SDS011;11967;50.852;4.400;2023-12-07T14:25:55;13.43;;;6.55;;
23578;SDS011;11967;50.852;4.400;2023-12-07T14:28:23;10.80;;;5.85;;
23578;SDS011;11967;50.852;4.400;2023-12-07T14:30:49;10.73;;;5.95;;